Time;durP1;ratioP1;P1;durP2;ratioP2;P2;SDS_P1;SDS_P2;PMS_P1;PMS_P2;Temp;Humidity;BMP_temperature;BMP_pressure;BME280_temperature;BME280_humidity;BME280_pressure;Samples;Min_cycle;Max_cycle;Signal;HPM_P1;HPM_P2
2021/04/22 00:01:06;;;;;;;23.57;4.13;;;;;;;;;;4363067;32;20142;-72
2021/04/22 00:03:34;;;;;;;13.43;3.50;;;;;;;;;;4362678;32;20579;-73
2021/04/22 00:12:48;;;;;;;18.93;3.87;;;;;;;;;;4286497;33;20272;-72
2021/04/22 00:15:15;;;;;;;16.63;3.90;;;;;;;;;;4292640;33;20191;-72
2021/04/22 00:18:32;;;;;;;15.20;4.20;;;;;;;;;;4305477;33;20145;-72
2021/04/22 00:21:19;;;;;;;12.50;3.83;;;;;;;;;;4353289;33;20171;-72
2021/04/22 00:23:56;;;;;;;;;;;;;;;;;;;;;
2021/04/22 00:26:57;;;;;;;14.77;3.87;;;;;;;;;;4287001;33;20571;-72
2021/04/22 00:29:37;;;;;;;19.37;4.03;;;;;;;;;;4274841;33;20227;-72
2021/04/22 00:32:21;;;;;;;;;;;;;;;;;;;;;
2021/04/22 00:40:32;;;;;;;18.53;3.63;;;;;;;;;;4338087;33;20628;-72
2021/04/22 00:43:01;;;;;;;16.80;4.00;;;;;;;;;;4368520;32;20138;-72
2021/04/22 00:45:42;;;;;;;17.13;4.00;;;;;;;;;;4363230;32;20200;-72
2021/04/22 00:48:08;;;;;;;18.97;3.93;;;;;;;;;;4363929;32;20182;-72
2021/04/22 00:50:34;;;;;;;14.73;3.67;;;;;;;;;;4373775;32;20195;-72
2021/04/22 00:53:03;;;;;;;16.67;4.47;;;;;;;;;;4347936;33;20155;-72
2021/04/22 00:55:29;;;;;;;17.83;3.87;;;;;;;;;;4361324;32;20139;-72
2021/04/22 00:58:16;;;;;;;18.03;4.00;;;;;;;;;;4361124;33;20278;-71
2021/04/22 01:00:51;;;;;;;15.07;4.17;;;;;;;;;;4361518;32;20163;-73
2021/04/22 01:03:25;;;;;;;19.17;3.60;;;;;;;;;;4361830;32;20151;-73
2021/04/22 01:05:57;;;;;;;21.13;3.97;;;;;;;;;;4361813;32;20127;-72
2021/04/22 01:08:33;;;;;;;16.90;4.13;;;;;;;;;;4361267;32;20175;-72
2021/04/22 01:11:29;;;;;;;;;;;;;;;;;;;;;
2021/04/22 01:14:03;;;;;;;15.50;3.83;;;;;;;;;;4361582;33;20177;-72
2021/04/22 01:16:42;;;;;;;15.20;3.70;;;;;;;;;;4362310;32;20165;-72
2021/04/22 01:19:21;;;;;;;14.27;3.80;;;;;;;;;;4361376;33;20131;-72
2021/04/22 01:22:36;;;;;;;13.63;3.80;;;;;;;;;;4356381;32;20143;-72
2021/04/22 01:24:58;;;;;;;12.20;3.70;;;;;;;;;;4340241;33;20206;-72
2021/04/22 01:27:35;;;;;;;15.87;3.83;;;;;;;;;;4346347;33;20196;-72
2021/04/22 01:30:06;;;;;;;15.43;3.57;;;;;;;;;;4346742;33;20135;-72
2021/04/22 01:32:39;;;;;;;10.97;3.23;;;;;;;;;;4346725;33;20165;-73
2021/04/22 01:35:08;;;;;;;13.60;3.93;;;;;;;;;;4332600;33;20187;-72
2021/04/22 01:37:48;;;;;;;20.03;3.90;;;;;;;;;;4324435;33;20193;-72
2021/04/22 01:40:25;;;;;;;16.10;3.73;;;;;;;;;;4344198;33;20261;-72
2021/04/22 01:43:28;;;;;;;13.83;3.53;;;;;;;;;;4346001;33;20139;-72
2021/04/22 01:45:48;;;;;;;13.20;3.53;;;;;;;;;;4343034;33;20663;-71
2021/04/22 01:48:35;;;;;;;14.87;3.83;;;;;;;;;;4344606;33;20728;-72
2021/04/22 01:51:22;;;;;;;11.67;3.33;;;;;;;;;;4345834;33;20159;-72
2021/04/22 01:53:48;;;;;;;13.13;3.60;;;;;;;;;;4340200;33;20151;-72
2021/04/22 01:56:38;;;;;;;21.50;3.77;;;;;;;;;;4333699;32;20532;-72
2021/04/22 01:59:04;;;;;;;13.97;3.70;;;;;;;;;;4374996;32;20189;-72
2021/04/22 02:01:42;;;;;;;;;;;;;;;;;;;;;
2021/04/22 02:04:10;;;;;;;15.13;3.83;;;;;;;;;;4372769;32;20163;-72
2021/04/22 02:06:36;;;;;;;14.97;3.50;;;;;;;;;;4361860;32;20178;-72
2021/04/22 02:09:04;;;;;;;19.13;3.93;;;;;;;;;;4364270;32;20205;-71
2021/04/22 02:11:32;;;;;;;14.67;3.00;;;;;;;;;;4371658;32;20209;-72
2021/04/22 02:14:00;;;;;;;13.27;3.70;;;;;;;;;;4360375;32;20166;-72
2021/04/22 02:16:39;;;;;;;17.93;4.17;;;;;;;;;;4346880;33;20222;-72
2021/04/22 02:19:04;;;;;;;15.60;3.67;;;;;;;;;;4359171;33;20181;-72
2021/04/22 02:24:18;;;;;;;17.13;3.90;;;;;;;;;;4330075;33;20508;-72
2021/04/22 02:26:43;;;;;;;12.67;3.83;;;;;;;;;;4347067;33;20159;-72
2021/04/22 02:29:11;;;;;;;18.77;4.07;;;;;;;;;;4356768;32;20208;-72
2021/04/22 02:31:45;;;;;;;15.10;3.80;;;;;;;;;;4346138;33;20534;-72
2021/04/22 02:34:11;;;;;;;11.80;4.27;;;;;;;;;;4352616;33;20170;-72
2021/04/22 02:36:46;;;;;;;;;;;;;;;;;;;;;
2021/04/22 02:39:12;;;;;;;16.47;4.17;;;;;;;;;;4361055;32;20123;-72
2021/04/22 02:41:37;;;;;;;14.57;3.60;;;;;;;;;;4358499;33;20159;-72
2021/04/22 02:44:15;;;;;;;;;;;;;;;;;;;;;
2021/04/22 02:47:00;;;;;;;;;;;;;;;;;;;;;
2021/04/22 02:49:41;;;;;;;13.33;3.57;;;;;;;;;;4375255;32;20594;-72
2021/04/22 02:52:23;;;;;;;;;;;;;;;;;;;;;
2021/04/22 02:54:48;;;;;;;17.80;4.03;;;;;;;;;;4375331;32;20135;-72
2021/04/22 02:57:16;;;;;;;14.50;3.57;;;;;;;;;;4373542;32;20182;-72
2021/04/22 02:59:41;;;;;;;14.60;4.20;;;;;;;;;;4377400;32;20158;-73
2021/04/22 03:05:01;;;;;;;12.23;3.67;;;;;;;;;;4346624;33;20607;-72
2021/04/22 03:07:58;;;;;;;14.80;4.30;;;;;;;;;;4346754;33;20219;-73
2021/04/22 03:10:24;;;;;;;11.30;3.30;;;;;;;;;;4366792;32;20224;-72
2021/04/22 03:13:03;;;;;;;13.17;3.40;;;;;;;;;;4369302;32;20143;-72
2021/04/22 03:15:30;;;;;;;14.83;3.60;;;;;;;;;;4362866;33;20134;-72
2021/04/22 03:20:45;;;;;;;17.97;3.50;;;;;;;;;;4361886;32;20222;-72
2021/04/22 03:23:10;;;;;;;13.47;3.87;;;;;;;;;;4362684;32;20549;-73
2021/04/22 03:25:35;;;;;;;11.90;3.37;;;;;;;;;;4361579;33;20171;-72
2021/04/22 03:30:58;;;;;;;15.87;3.53;;;;;;;;;;4316916;33;20182;-73
2021/04/22 03:33:27;;;;;;;14.87;3.60;;;;;;;;;;4368446;32;20163;-72
2021/04/22 03:38:56;;;;;;;12.10;3.00;;;;;;;;;;4355077;33;20210;-72
2021/04/22 03:50:31;;;;;;;11.90;3.20;;;;;;;;;;4287823;33;20205;-73
2021/04/22 03:56:14;;;;;;;10.53;3.77;;;;;;;;;;4359803;32;20204;-73
2021/04/22 03:58:46;;;;;;;16.00;3.10;;;;;;;;;;4376976;32;20576;-73
2021/04/22 04:01:47;;;;;;;13.87;3.50;;;;;;;;;;4376294;32;20190;-73
2021/04/22 04:04:29;;;;;;;11.73;3.13;;;;;;;;;;4373557;32;20159;-72
2021/04/22 04:06:54;;;;;;;16.80;3.50;;;;;;;;;;4377630;32;20188;-72
2021/04/22 04:09:31;;;;;;;12.07;3.33;;;;;;;;;;4362939;32;20190;-74
2021/04/22 04:12:05;;;;;;;13.13;3.80;;;;;;;;;;4377606;32;20212;-73
2021/04/22 04:14:41;;;;;;;;;;;;;;;;;;;;;
2021/04/22 04:17:06;;;;;;;16.53;3.43;;;;;;;;;;4365678;32;20596;-72
2021/04/22 04:19:32;;;;;;;17.37;3.83;;;;;;;;;;4376376;32;20157;-73
2021/04/22 04:22:11;;;;;;;14.20;3.30;;;;;;;;;;4361824;32;20219;-72
2021/04/22 04:24:41;;;;;;;12.83;3.10;;;;;;;;;;4345170;33;20167;-72
2021/04/22 04:27:07;;;;;;;18.17;3.77;;;;;;;;;;4361273;32;20182;-72
2021/04/22 04:29:32;;;;;;;9.30;2.87;;;;;;;;;;4361786;32;20494;-72
2021/04/22 04:31:58;;;;;;;18.83;3.40;;;;;;;;;;4361592;32;20154;-72
2021/04/22 04:34:40;;;;;;;21.43;3.70;;;;;;;;;;4360384;32;20198;-73
2021/04/22 04:37:34;;;;;;;;;;;;;;;;;;;;;
2021/04/22 04:40:03;;;;;;;25.40;4.50;;;;;;;;;;4361630;33;20131;-73
2021/04/22 04:42:40;;;;;;;18.10;3.77;;;;;;;;;;4360639;33;20162;-73
2021/04/22 04:45:19;;;;;;;19.87;3.57;;;;;;;;;;4360569;33;20214;-73
2021/04/22 04:51:02;;;;;;;11.37;2.83;;;;;;;;;;4355739;32;20193;-72
2021/04/22 04:53:58;;;;;;;;;;;;;;;;;;;;;
2021/04/22 04:56:29;;;;;;;10.50;3.03;;;;;;;;;;4361821;32;20186;-72
2021/04/22 04:59:07;;;;;;;13.17;3.30;;;;;;;;;;4360953;33;20163;-73
2021/04/22 05:01:45;;;;;;;;;;;;;;;;;;;;;
2021/04/22 05:04:21;;;;;;;;;;;;;;;;;;;;;
2021/04/22 05:06:59;;;;;;;9.83;2.93;;;;;;;;;;4346801;33;20166;-72
2021/04/22 05:09:47;;;;;;;13.47;3.00;;;;;;;;;;4346768;33;20450;-73
2021/04/22 05:12:13;;;;;;;12.80;3.00;;;;;;;;;;4352563;33;20385;-72
2021/04/22 05:14:38;;;;;;;10.73;3.40;;;;;;;;;;4353802;33;20233;-72
2021/04/22 05:17:25;;;;;;;15.77;2.97;;;;;;;;;;4360848;32;20193;-73
2021/04/22 05:22:59;;;;;;;13.47;3.10;;;;;;;;;;4346397;33;20205;-72
2021/04/22 05:25:58;;;;;;;16.53;3.30;;;;;;;;;;4356056;33;20648;-72
2021/04/22 05:28:23;;;;;;;14.73;3.40;;;;;;;;;;4346816;33;20193;-72
2021/04/22 05:30:49;;;;;;;15.87;3.70;;;;;;;;;;4339811;33;20159;-72
2021/04/22 05:33:17;;;;;;;19.60;3.80;;;;;;;;;;4346578;32;20222;-71
2021/04/22 05:35:46;;;;;;;16.33;3.20;;;;;;;;;;4339651;33;20159;-71
2021/04/22 05:38:12;;;;;;;13.13;2.73;;;;;;;;;;4345906;32;20139;-72
2021/04/22 05:41:03;;;;;;;13.33;3.40;;;;;;;;;;4346176;33;20533;-71
2021/04/22 05:43:44;;;;;;;;;;;;;;;;;;;;;
2021/04/22 05:46:10;;;;;;;16.60;3.10;;;;;;;;;;4345971;33;20139;-73
2021/04/22 05:48:35;;;;;;;11.00;3.20;;;;;;;;;;4346124;33;20166;-72
2021/04/22 05:51:00;;;;;;;14.23;3.33;;;;;;;;;;4353040;33;20159;-71
2021/04/22 05:53:25;;;;;;;15.53;3.53;;;;;;;;;;4345172;33;20488;-73
2021/04/22 05:55:53;;;;;;;19.40;3.60;;;;;;;;;;4339764;33;20164;-72
2021/04/22 05:58:36;;;;;;;14.90;3.17;;;;;;;;;;4345687;32;20128;-72
2021/04/22 06:01:10;;;;;;;18.40;3.17;;;;;;;;;;4346252;33;20144;-72
2021/04/22 06:03:45;;;;;;;11.53;2.40;;;;;;;;;;4346254;33;20202;-73
2021/04/22 06:06:10;;;;;;;16.10;3.20;;;;;;;;;;4341889;33;20158;-72
2021/04/22 06:08:54;;;;;;;22.77;3.07;;;;;;;;;;4344129;33;20592;-71
2021/04/22 06:11:20;;;;;;;13.23;3.80;;;;;;;;;;4345863;33;20140;-72
2021/04/22 06:13:47;;;;;;;18.33;3.67;;;;;;;;;;4345690;33;20499;-72
2021/04/22 06:16:13;;;;;;;11.13;2.70;;;;;;;;;;4346295;33;20158;-72
2021/04/22 06:18:41;;;;;;;20.97;3.80;;;;;;;;;;4345640;33;20210;-71
2021/04/22 06:21:11;;;;;;;22.83;3.93;;;;;;;;;;4345250;33;20128;-72
2021/04/22 06:23:45;;;;;;;11.63;2.27;;;;;;;;;;4356346;32;20178;-72
2021/04/22 06:26:10;;;;;;;9.53;2.43;;;;;;;;;;4332409;33;20224;-72
2021/04/22 06:28:38;;;;;;;12.90;2.60;;;;;;;;;;4331737;33;20592;-73
2021/04/22 06:31:14;;;;;;;9.33;2.50;;;;;;;;;;4345394;33;20205;-76
2021/04/22 06:33:39;;;;;;;15.43;2.67;;;;;;;;;;4345573;33;20124;-72
2021/04/22 06:36:05;;;;;;;10.10;2.23;;;;;;;;;;4345982;33;20217;-73
2021/04/22 06:38:33;;;;;;;14.13;2.80;;;;;;;;;;4355628;32;20581;-72
2021/04/22 06:41:01;;;;;;;13.13;2.13;;;;;;;;;;4352009;33;20519;-73
2021/04/22 06:43:26;;;;;;;13.57;2.70;;;;;;;;;;4345019;33;20170;-73
2021/04/22 06:46:05;;;;;;;;;;;;;;;;;;;;;
2021/04/22 06:48:30;;;;;;;16.43;2.60;;;;;;;;;;4345172;33;20155;-73
2021/04/22 06:50:58;;;;;;;19.60;2.60;;;;;;;;;;4345192;33;20158;-72
2021/04/22 06:53:23;;;;;;;12.50;2.63;;;;;;;;;;4355400;33;20221;-72
2021/04/22 06:55:49;;;;;;;15.30;2.20;;;;;;;;;;4345531;33;20206;-74
2021/04/22 06:58:15;;;;;;;13.73;3.03;;;;;;;;;;4341770;33;20163;-73
2021/04/22 07:00:42;;;;;;;9.23;2.07;;;;;;;;;;4344928;33;20144;-74
2021/04/22 07:03:08;;;;;;;17.83;2.50;;;;;;;;;;4344989;33;20161;-73
2021/04/22 07:05:34;;;;;;;12.87;2.23;;;;;;;;;;4356434;33;20183;-72
2021/04/22 07:07:59;;;;;;;8.87;2.10;;;;;;;;;;4345975;33;20124;-72
2021/04/22 07:10:24;;;;;;;12.33;2.43;;;;;;;;;;4332012;33;20151;-72
2021/04/22 07:12:50;;;;;;;11.97;2.30;;;;;;;;;;4338901;33;20159;-72
2021/04/22 07:15:16;;;;;;;11.83;2.40;;;;;;;;;;4357401;33;20178;-73
2021/04/22 07:17:41;;;;;;;10.77;2.87;;;;;;;;;;4346157;33;20132;-72
2021/04/22 07:20:08;;;;;;;10.03;2.53;;;;;;;;;;4340651;33;20174;-72
2021/04/22 07:22:33;;;;;;;12.67;2.90;;;;;;;;;;4343701;33;20225;-71
2021/04/22 07:24:58;;;;;;;8.97;2.30;;;;;;;;;;4339978;33;20155;-71
2021/04/22 07:27:29;;;;;;;8.67;1.83;;;;;;;;;;4345328;33;20124;-73
2021/04/22 07:30:25;;;;;;;13.57;2.43;;;;;;;;;;4353459;33;20156;-72
2021/04/22 07:33:12;;;;;;;9.20;2.30;;;;;;;;;;4345289;33;20205;-72
2021/04/22 07:35:39;;;;;;;11.77;2.30;;;;;;;;;;4339824;33;20159;-72
2021/04/22 07:38:08;;;;;;;10.40;2.10;;;;;;;;;;4352436;33;20187;-72
2021/04/22 07:40:36;;;;;;;14.87;2.47;;;;;;;;;;4345496;33;20167;-72
2021/04/22 07:43:02;;;;;;;8.70;2.00;;;;;;;;;;4352243;32;20189;-71
2021/04/22 07:45:29;;;;;;;9.47;2.43;;;;;;;;;;4346253;33;20164;-72
2021/04/22 07:48:09;;;;;;;12.70;2.17;;;;;;;;;;4354084;33;20505;-74
2021/04/22 07:53:45;;;;;;;10.27;2.77;;;;;;;;;;4347723;33;20516;-73
2021/04/22 07:56:45;;;;;;;12.00;2.40;;;;;;;;;;4356030;32;20528;-72
2021/04/22 07:59:31;;;;;;;8.90;1.90;;;;;;;;;;4346401;33;20576;-73
2021/04/22 08:02:07;;;;;;;9.40;2.63;;;;;;;;;;4347365;33;20515;-73
2021/04/22 08:04:35;;;;;;;8.27;2.10;;;;;;;;;;4346991;33;20147;-73
2021/04/22 08:07:01;;;;;;;9.13;2.37;;;;;;;;;;4333774;33;20164;-73
2021/04/22 08:15:36;;;;;;;9.93;1.90;;;;;;;;;;4337681;33;20573;-73
2021/04/22 08:18:04;;;;;;;5.80;2.07;;;;;;;;;;4333605;33;20167;-73
2021/04/22 08:23:43;;;;;;;11.57;2.43;;;;;;;;;;4341435;33;20254;-73
2021/04/22 08:29:43;;;;;;;8.73;2.50;;;;;;;;;;4328944;33;20666;-73
2021/04/22 08:32:26;;;;;;;7.07;2.40;;;;;;;;;;4347254;33;20219;-73
2021/04/22 08:35:01;;;;;;;7.07;2.07;;;;;;;;;;4347258;33;20147;-73
2021/04/22 08:37:26;;;;;;;9.30;2.43;;;;;;;;;;4346932;33;20139;-73
2021/04/22 08:39:57;;;;;;;8.67;2.27;;;;;;;;;;4347355;33;20161;-73
2021/04/22 08:42:32;;;;;;;11.70;2.50;;;;;;;;;;4347401;33;20572;-73
2021/04/22 08:44:59;;;;;;;9.50;2.27;;;;;;;;;;4347364;33;20131;-73
2021/04/22 08:47:52;;;;;;;9.70;2.53;;;;;;;;;;4333127;33;20155;-73
2021/04/22 08:56:58;;;;;;;15.57;2.40;;;;;;;;;;4301088;33;20136;-74
2021/04/22 09:05:12;;;;;;;10.30;2.60;;;;;;;;;;4346609;33;20632;-74
2021/04/22 09:07:38;;;;;;;11.80;2.40;;;;;;;;;;4346513;33;20147;-72
2021/04/22 09:10:04;;;;;;;10.20;2.47;;;;;;;;;;4357454;32;20561;-73
2021/04/22 09:12:29;;;;;;;10.23;2.47;;;;;;;;;;4346119;33;20191;-73
2021/04/22 09:15:05;;;;;;;12.57;2.60;;;;;;;;;;4346272;33;20162;-73
2021/04/22 09:17:30;;;;;;;9.93;2.40;;;;;;;;;;4345478;33;20163;-73
2021/04/22 09:20:03;;;;;;;8.83;2.30;;;;;;;;;;4357149;33;20181;-72
2021/04/22 09:22:33;;;;;;;6.70;2.47;;;;;;;;;;4357587;33;20182;-73
2021/04/22 09:25:09;;;;;;;10.17;2.50;;;;;;;;;;4363949;32;20237;-73
2021/04/22 09:28:13;;;;;;;9.80;2.45;;;;;;;;;;4345006;33;20194;-73
2021/04/22 09:34:09;;;;;;;12.73;2.93;;;;;;;;;;4336748;33;20182;-74
2021/04/22 09:36:44;;;;;;;6.03;2.37;;;;;;;;;;4356843;33;20233;-73
2021/04/22 09:39:22;;;;;;;9.13;2.73;;;;;;;;;;4360574;32;20131;-72
2021/04/22 09:41:48;;;;;;;10.53;2.70;;;;;;;;;;4359506;32;20193;-73
2021/04/22 09:44:15;;;;;;;6.47;2.60;;;;;;;;;;4362022;32;20249;-72
2021/04/22 09:46:59;;;;;;;12.18;2.92;;;;;;;;;;4360805;32;20143;-74
2021/04/22 09:49:49;;;;;;;7.00;2.20;;;;;;;;;;4359386;32;20604;-72
2021/04/22 09:52:17;;;;;;;32.28;3.83;;;;;;;;;;4353992;33;20564;-72
2021/04/22 09:54:47;;;;;;;11.02;2.60;;;;;;;;;;4359127;33;20553;-72
2021/04/22 09:57:19;;;;;;;7.78;2.55;;;;;;;;;;4359971;32;20166;-72
2021/04/22 09:59:45;;;;;;;9.38;2.80;;;;;;;;;;4360438;32;20537;-74
2021/04/22 10:02:10;;;;;;;9.35;3.15;;;;;;;;;;4360699;32;20182;-73
2021/04/22 10:05:06;;;;;;;;;;;;;;;;;;;;;
2021/04/22 10:08:04;;;;;;;7.30;2.53;;;;;;;;;;4361104;32;20123;-72
2021/04/22 10:10:26;;;;;;;8.68;2.67;;;;;;;;;;4358887;33;20189;-73
2021/04/22 10:12:58;;;;;;;8.07;2.50;;;;;;;;;;4360132;32;20214;-71
2021/04/22 10:15:25;;;;;;;9.45;2.60;;;;;;;;;;4360556;32;20131;-72
2021/04/22 10:17:52;;;;;;;9.32;2.75;;;;;;;;;;4359079;32;20147;-74
2021/04/22 10:20:20;;;;;;;12.25;2.72;;;;;;;;;;4359563;32;20608;-73
2021/04/22 10:23:03;;;;;;;12.48;2.80;;;;;;;;;;4359177;32;20175;-71
2021/04/22 10:26:15;;;;;;;8.48;2.87;;;;;;;;;;4359571;32;20197;-72
2021/04/22 10:28:27;;;;;;;10.30;2.87;;;;;;;;;;4355573;33;20573;-73
2021/04/22 10:31:05;;;;;;;8.45;3.03;;;;;;;;;;4360801;32;20135;-72
2021/04/22 10:33:33;;;;;;;17.42;3.05;;;;;;;;;;4360731;32;20127;-73
2021/04/22 10:35:58;;;;;;;8.77;2.78;;;;;;;;;;4359278;32;20147;-73
2021/04/22 10:38:33;;;;;;;9.63;2.83;;;;;;;;;;4358400;32;20584;-73
2021/04/22 10:40:59;;;;;;;8.80;3.05;;;;;;;;;;4360134;33;20127;-74
2021/04/22 10:43:47;;;;;;;12.15;3.22;;;;;;;;;;4360114;33;20166;-73
2021/04/22 10:46:29;;;;;;;10.68;3.37;;;;;;;;;;4359661;32;20131;-72
2021/04/22 10:48:54;;;;;;;12.80;3.17;;;;;;;;;;4359123;33;20190;-74
2021/04/22 10:51:20;;;;;;;10.63;2.83;;;;;;;;;;4359993;33;20553;-74
2021/04/22 10:53:45;;;;;;;11.23;3.37;;;;;;;;;;4359624;33;20465;-72
2021/04/22 10:56:10;;;;;;;9.95;3.17;;;;;;;;;;4358612;33;20178;-73
2021/04/22 10:58:43;;;;;;;5.40;2.70;;;;;;;;;;4358607;33;20246;-72
2021/04/22 11:01:29;;;;;;;9.38;2.90;;;;;;;;;;4370623;32;20210;-74
2021/04/22 11:04:01;;;;;;;8.80;3.45;;;;;;;;;;4358288;33;20187;-72
2021/04/22 11:06:44;;;;;;;8.23;2.97;;;;;;;;;;4360514;33;20178;-73
2021/04/22 11:09:25;;;;;;;12.88;3.17;;;;;;;;;;4359975;33;20139;-73
2021/04/22 11:12:05;;;;;;;10.63;3.10;;;;;;;;;;4360458;33;20161;-73
2021/04/22 11:14:46;;;;;;;7.47;3.55;;;;;;;;;;4326754;33;20212;-74
2021/04/22 11:17:12;;;;;;;10.25;3.25;;;;;;;;;;4359646;33;20136;-73
2021/04/22 11:20:07;;;;;;;6.12;2.87;;;;;;;;;;4361291;32;20210;-72
2021/04/22 11:22:25;;;;;;;11.95;3.10;;;;;;;;;;4360680;32;20206;-73
2021/04/22 11:24:55;;;;;;;7.30;2.40;;;;;;;;;;4361350;33;20160;-73
2021/04/22 11:27:24;;;;;;;5.90;2.45;;;;;;;;;;4361146;32;20178;-74
2021/04/22 11:29:57;;;;;;;9.73;3.25;;;;;;;;;;4362363;32;20209;-73
2021/04/22 11:32:24;;;;;;;10.95;2.50;;;;;;;;;;4373669;32;20225;-73
2021/04/22 11:34:58;;;;;;;9.43;2.20;;;;;;;;;;4362541;32;20169;-73
2021/04/22 11:37:29;;;;;;;9.02;2.70;;;;;;;;;;4362972;32;20139;-73
2021/04/22 11:39:55;;;;;;;8.98;2.67;;;;;;;;;;4363074;32;20206;-73
2021/04/22 11:42:30;;;;;;;;;;;;;;;;;;;;;
2021/04/22 11:45:08;;;;;;;7.97;2.33;;;;;;;;;;4360607;33;20194;-74
2021/04/22 11:47:36;;;;;;;7.37;2.45;;;;;;;;;;4361282;32;20496;-73
2021/04/22 11:50:34;;;;;;;9.82;2.55;;;;;;;;;;4361230;32;20163;-74
2021/04/22 11:53:05;;;;;;;9.57;2.78;;;;;;;;;;4361718;32;20139;-74
2021/04/22 11:55:35;;;;;;;7.53;2.75;;;;;;;;;;4361407;32;20147;-73
2021/04/22 11:58:10;;;;;;;8.93;2.78;;;;;;;;;;4360898;32;20231;-69
2021/04/22 12:01:26;;;;;;;;;;;;;;;;;;;;;
2021/04/22 12:03:36;;;;;;;12.27;3.12;;;;;;;;;;4348440;32;20293;-73
2021/04/22 12:06:25;;;;;;;9.80;2.65;;;;;;;;;;4333852;33;20607;-73
2021/04/22 12:08:50;;;;;;;9.57;2.40;;;;;;;;;;4341991;33;20167;-72
2021/04/22 12:12:03;;;;;;;7.70;3.10;;;;;;;;;;4346924;33;20174;-74
2021/04/22 12:14:04;;;;;;;8.80;2.55;;;;;;;;;;4341966;33;20171;-72
2021/04/22 12:19:56;;;;;;;6.20;2.10;;;;;;;;;;4286992;33;20190;-73
2021/04/22 12:22:31;;;;;;;7.93;2.28;;;;;;;;;;4287561;33;20140;-72
2021/04/22 12:24:57;;;;;;;6.55;2.15;;;;;;;;;;4332240;33;20193;-75
2021/04/22 12:27:26;;;;;;;10.18;2.90;;;;;;;;;;4361682;33;20425;-73
2021/04/22 12:29:51;;;;;;;9.48;3.20;;;;;;;;;;4360092;32;20198;-71
2021/04/22 12:35:02;;;;;;;11.15;2.20;;;;;;;;;;4346198;33;20217;-71
2021/04/22 12:40:32;;;;;;;7.18;2.50;;;;;;;;;;4347207;32;20209;-72
2021/04/22 12:43:00;;;;;;;8.05;2.35;;;;;;;;;;4355796;33;20159;-71
2021/04/22 12:45:25;;;;;;;9.13;2.33;;;;;;;;;;4362357;32;20460;-74
2021/04/22 12:47:54;;;;;;;8.40;2.62;;;;;;;;;;4347944;33;20534;-73
2021/04/22 12:53:16;;;;;;;7.45;2.90;;;;;;;;;;4358780;33;20193;-71
2021/04/22 12:56:07;;;;;;;6.80;2.42;;;;;;;;;;4347961;33;20164;-72
2021/04/22 12:58:37;;;;;;;7.45;2.10;;;;;;;;;;4361832;32;20127;-75
2021/04/22 13:01:17;;;;;;;;;;;;;;;;;;;;;
2021/04/22 13:03:45;;;;;;;8.55;2.60;;;;;;;;;;4361459;32;20185;-72
2021/04/22 13:06:13;;;;;;;7.25;2.85;;;;;;;;;;4361742;32;20135;-70
2021/04/22 13:08:49;;;;;;;8.40;2.50;;;;;;;;;;4347669;33;20325;-72
2021/04/22 13:11:15;;;;;;;10.57;2.65;;;;;;;;;;4361485;32;20216;-73
2021/04/22 13:14:04;;;;;;;6.03;2.20;;;;;;;;;;4360897;32;20523;-75
2021/04/22 13:16:33;;;;;;;9.18;2.87;;;;;;;;;;4348014;33;20175;-74
2021/04/22 13:19:00;;;;;;;8.52;2.30;;;;;;;;;;4361751;32;20143;-74
2021/04/22 13:22:15;;;;;;;6.65;2.10;;;;;;;;;;4347920;33;20171;-74
2021/04/22 13:24:17;;;;;;;9.35;3.00;;;;;;;;;;4351957;33;20245;-73
2021/04/22 13:26:55;;;;;;;7.55;2.33;;;;;;;;;;4347205;33;20604;-73
2021/04/22 13:29:21;;;;;;;8.40;2.62;;;;;;;;;;4360809;32;20212;-71
2021/04/22 13:31:58;;;;;;;10.02;2.67;;;;;;;;;;4347762;33;20164;-73
2021/04/22 13:34:26;;;;;;;7.30;2.90;;;;;;;;;;4358267;33;20229;-71
2021/04/22 13:36:52;;;;;;;7.57;2.12;;;;;;;;;;4360717;32;20579;-72
2021/04/22 13:39:28;;;;;;;8.50;2.72;;;;;;;;;;4361106;32;20147;-73
2021/04/22 13:42:06;;;;;;;7.35;2.00;;;;;;;;;;4360033;32;20166;-74
2021/04/22 13:44:39;;;;;;;7.93;2.47;;;;;;;;;;4346968;33;20175;-73
2021/04/22 13:47:09;;;;;;;8.10;2.60;;;;;;;;;;4347229;33;20185;-74
2021/04/22 13:49:35;;;;;;;7.72;2.37;;;;;;;;;;4360722;32;20481;-72
2021/04/22 13:52:24;;;;;;;7.50;2.15;;;;;;;;;;4360391;32;20609;-74
2021/04/22 13:54:55;;;;;;;7.68;2.37;;;;;;;;;;4350310;32;20186;-73
2021/04/22 13:57:31;;;;;;;6.35;2.70;;;;;;;;;;4347614;33;20151;-73
2021/04/22 14:00:22;;;;;;;9.90;2.62;;;;;;;;;;4335978;33;20174;-73
2021/04/22 14:03:08;;;;;;;8.73;2.47;;;;;;;;;;4334865;33;20156;-73
2021/04/22 14:05:36;;;;;;;7.25;2.50;;;;;;;;;;4345212;33;20171;-73
2021/04/22 14:08:01;;;;;;;5.87;2.80;;;;;;;;;;4356494;32;20151;-72
2021/04/22 14:10:28;;;;;;;6.43;2.67;;;;;;;;;;4344102;33;20202;-74
2021/04/22 14:12:53;;;;;;;8.52;2.60;;;;;;;;;;4345698;33;20128;-73
2021/04/22 14:15:21;;;;;;;19.73;3.58;;;;;;;;;;4345283;33;20155;-71
2021/04/22 14:17:46;;;;;;;5.60;2.30;;;;;;;;;;4345272;33;20123;-72
2021/04/22 14:20:12;;;;;;;4.93;2.22;;;;;;;;;;4345276;33;20128;-74
2021/04/22 14:22:37;;;;;;;7.75;2.25;;;;;;;;;;4332658;33;20151;-70
2021/04/22 14:25:03;;;;;;;7.70;2.28;;;;;;;;;;4356418;33;20230;-74
2021/04/22 14:27:28;;;;;;;7.18;2.25;;;;;;;;;;4356440;32;20565;-74
2021/04/22 14:29:59;;;;;;;9.65;2.40;;;;;;;;;;4345531;33;20166;-73
2021/04/22 14:32:25;;;;;;;5.45;2.58;;;;;;;;;;4346247;33;20166;-71
2021/04/22 14:34:54;;;;;;;6.57;2.33;;;;;;;;;;4345339;33;20128;-74
2021/04/22 14:37:19;;;;;;;7.70;2.33;;;;;;;;;;4345890;33;20166;-74
2021/04/22 14:40:00;;;;;;;6.95;2.10;;;;;;;;;;4353918;33;20155;-74
2021/04/22 14:42:34;;;;;;;9.23;2.17;;;;;;;;;;4346425;33;20220;-73
2021/04/22 14:44:59;;;;;;;6.75;1.87;;;;;;;;;;4358937;32;20154;-72
2021/04/22 14:47:34;;;;;;;4.60;1.62;;;;;;;;;;4360196;32;20202;-72
2021/04/22 14:50:03;;;;;;;8.18;1.98;;;;;;;;;;4358836;33;20217;-73
2021/04/22 14:52:34;;;;;;;7.10;1.80;;;;;;;;;;4359661;32;20221;-73
2021/04/22 14:55:03;;;;;;;4.50;1.77;;;;;;;;;;4363754;32;20513;-75
2021/04/22 14:57:29;;;;;;;6.87;2.20;;;;;;;;;;4363451;32;20182;-74
2021/04/22 15:02:57;;;;;;;10.18;2.03;;;;;;;;;;4365144;32;20209;-75
2021/04/22 15:05:23;;;;;;;8.52;2.10;;;;;;;;;;4365465;32;20144;-71
2021/04/22 15:07:48;;;;;;;9.57;2.00;;;;;;;;;;4364941;32;20182;-73
2021/04/22 15:10:14;;;;;;;9.00;1.75;;;;;;;;;;4364745;32;20216;-74
2021/04/22 15:12:40;;;;;;;9.38;1.85;;;;;;;;;;4351163;33;20232;-73
2021/04/22 15:15:09;;;;;;;12.35;1.75;;;;;;;;;;4350978;33;20641;-72
2021/04/22 15:17:34;;;;;;;9.10;1.95;;;;;;;;;;4364775;32;20182;-73
2021/04/22 15:20:16;;;;;;;5.70;1.80;;;;;;;;;;4365080;32;20197;-74
2021/04/22 15:22:41;;;;;;;8.75;2.28;;;;;;;;;;4364305;32;20543;-73
2021/04/22 15:25:07;;;;;;;6.80;1.85;;;;;;;;;;4364109;32;20194;-74
2021/04/22 15:27:32;;;;;;;6.87;1.98;;;;;;;;;;4351146;33;20213;-72
2021/04/22 15:29:57;;;;;;;7.53;2.10;;;;;;;;;;4364277;32;20245;-74
2021/04/22 15:32:22;;;;;;;5.72;1.75;;;;;;;;;;4350789;33;20266;-72
2021/04/22 15:34:47;;;;;;;6.37;2.03;;;;;;;;;;4350803;33;20171;-67
2021/04/22 15:37:15;;;;;;;5.70;2.00;;;;;;;;;;4348293;33;20278;-75
2021/04/22 15:39:48;;;;;;;6.37;1.85;;;;;;;;;;4349178;33;20217;-73
2021/04/22 15:42:13;;;;;;;8.43;1.70;;;;;;;;;;4348904;33;20186;-73
2021/04/22 15:44:39;;;;;;;9.73;1.92;;;;;;;;;;4349708;33;20198;-71
2021/04/22 15:47:04;;;;;;;9.95;1.73;;;;;;;;;;4337934;33;20198;-72
2021/04/22 15:49:37;;;;;;;6.78;1.70;;;;;;;;;;4363858;32;20169;-73
2021/04/22 15:52:02;;;;;;;4.82;1.42;;;;;;;;;;4363395;32;20143;-73
2021/04/22 15:54:35;;;;;;;4.82;1.58;;;;;;;;;;4362575;32;20185;-73
2021/04/22 15:57:00;;;;;;;5.15;1.67;;;;;;;;;;4379961;32;20524;-71
2021/04/22 15:59:26;;;;;;;7.47;1.65;;;;;;;;;;4379495;32;20196;-74
2021/04/22 16:01:51;;;;;;;5.90;1.60;;;;;;;;;;4364922;32;20193;-73
2021/04/22 16:04:16;;;;;;;5.07;1.33;;;;;;;;;;4366871;32;20519;-72
2021/04/22 16:06:42;;;;;;;6.60;1.58;;;;;;;;;;4361706;33;20144;-72
2021/04/22 16:09:07;;;;;;;5.65;1.70;;;;;;;;;;4362085;32;20178;-73
2021/04/22 16:11:32;;;;;;;8.82;1.70;;;;;;;;;;4348483;33;20246;-73
2021/04/22 16:13:58;;;;;;;6.40;1.50;;;;;;;;;;4347831;33;20166;-73
2021/04/22 16:16:23;;;;;;;5.70;1.47;;;;;;;;;;4348372;33;20327;-72
2021/04/22 16:18:53;;;;;;;6.53;1.58;;;;;;;;;;4362586;32;20244;-74
2021/04/22 16:21:18;;;;;;;5.45;1.40;;;;;;;;;;4348230;33;20241;-74
2021/04/22 16:23:44;;;;;;;7.47;2.00;;;;;;;;;;4361522;33;20190;-73
2021/04/22 16:26:09;;;;;;;5.90;1.60;;;;;;;;;;4347953;33;20236;-73
2021/04/22 16:28:46;;;;;;;4.72;1.50;;;;;;;;;;4345191;33;20230;-72
2021/04/22 16:31:12;;;;;;;8.05;2.00;;;;;;;;;;4349543;33;20226;-71
2021/04/22 16:33:37;;;;;;;7.32;1.83;;;;;;;;;;4361165;32;20143;-73
2021/04/22 16:36:04;;;;;;;7.75;1.62;;;;;;;;;;4362158;32;20154;-72
2021/04/22 16:38:30;;;;;;;5.35;1.58;;;;;;;;;;4362242;32;20163;-73
2021/04/22 16:40:57;;;;;;;7.47;1.90;;;;;;;;;;4376484;32;20170;-73
2021/04/22 16:43:23;;;;;;;5.50;1.70;;;;;;;;;;4350314;33;20179;-73
2021/04/22 16:45:48;;;;;;;6.00;2.00;;;;;;;;;;4360298;32;20473;-71
2021/04/22 16:48:16;;;;;;;7.40;1.55;;;;;;;;;;4360959;32;20175;-74
2021/04/22 16:50:41;;;;;;;4.78;1.40;;;;;;;;;;4361413;33;20166;-71
2021/04/22 16:53:07;;;;;;;7.85;2.10;;;;;;;;;;4361491;32;20139;-73
2021/04/22 16:55:32;;;;;;;11.00;2.08;;;;;;;;;;4360989;32;20548;-74